Terminal Aerodrome Forecast
Issued by NWS

Home | Current Version | Previous Version | Graphics & Text | Print | Product List | Glossary On
Versions: 1 2 3 4 5 6 7 8 9 10 11 12 13 14
503
FTUS43 KMPX 271139
TAFRWF
TAF
KRWF 271139Z 2712/2812 28010KT P6SM SKC
     FM271500 31013G20KT P6SM SCT030
     FM280000 33007KT P6SM SCT040=

USA.gov is the U.S. government's official web portal to all federal, state and local government web resources and services.